Terminal Aerodrome Forecast
Issued by NWS

Home | Current Version | Previous Version | Text Only | Print | Product List | Glossary On
Versions: 1 2 3 4 5 6 7 8 9 10 11 12
000
FTAK31 PAFA 261125
TAFAOT
TAF
PAOT 261125Z 2612/2712 05008KT P6SM FEW140 SCT220
     FM270000 07010KT P6SM VCSH BKN050 BKN100 OVC200=

USA.gov is the U.S. government's official web portal to all federal, state and local government web resources and services.